sensor_id;sensor_type;location;lat;lon;timestamp;pressure;altitude;pressure_sealevel;temperature;humidity
52949;BME280;38812;50.942;3.644;2023-04-19T00:00:47;102449.53;;;9.06;100.00
52949;BME280;38812;50.942;3.644;2023-04-19T00:03:12;102444.25;;;9.03;100.00
52949;BME280;38812;50.942;3.644;2023-04-19T00:05:38;102457.41;;;9.07;100.00
52949;BME280;38812;50.942;3.644;2023-04-19T00:08:04;102453.91;;;9.08;100.00
52949;BME280;38812;50.942;3.644;2023-04-19T00:10:30;102452.97;;;9.03;100.00
52949;BME280;38812;50.942;3.644;2023-04-19T00:12:56;102434.47;;;8.86;100.00
52949;BME280;38812;50.942;3.644;2023-04-19T00:15:21;102445.03;;;8.96;100.00
52949;BME280;38812;50.942;3.644;2023-04-19T00:17:46;102434.44;;;8.85;100.00
52949;BME280;38812;50.942;3.644;2023-04-19T00:20:12;102441.53;;;8.95;100.00
52949;BME280;38812;50.942;3.644;2023-04-19T00:22:38;102459.94;;;9.01;100.00
52949;BME280;38812;50.942;3.644;2023-04-19T00:25:04;102450.31;;;9.00;100.00
52949;BME280;38812;50.942;3.644;2023-04-19T00:27:29;102452.91;;;8.97;100.00
52949;BME280;38812;50.942;3.644;2023-04-19T00:29:55;102446.72;;;8.92;100.00
52949;BME280;38812;50.942;3.644;2023-04-19T00:32:22;102453.69;;;8.90;100.00
52949;BME280;38812;50.942;3.644;2023-04-19T00:34:47;102444.94;;;8.86;100.00
52949;BME280;38812;50.942;3.644;2023-04-19T00:37:12;102441.25;;;8.72;100.00
52949;BME280;38812;50.942;3.644;2023-04-19T00:39:38;102451.72;;;8.71;100.00
52949;BME280;38812;50.942;3.644;2023-04-19T00:42:03;102443.81;;;8.65;100.00
52949;BME280;38812;50.942;3.644;2023-04-19T00:44:28;102446.38;;;8.62;100.00
52949;BME280;38812;50.942;3.644;2023-04-19T00:46:55;102453.38;;;8.63;100.00
52949;BME280;38812;50.942;3.644;2023-04-19T00:49:21;102446.34;;;8.58;100.00
52949;BME280;38812;50.942;3.644;2023-04-19T00:51:48;102454.22;;;8.60;100.00
52949;BME280;38812;50.942;3.644;2023-04-19T00:54:15;102441.78;;;8.45;100.00
52949;BME280;38812;50.942;3.644;2023-04-19T00:56:40;102437.50;;;8.50;100.00
52949;BME280;38812;50.942;3.644;2023-04-19T00:59:06;102453.22;;;8.50;100.00
52949;BME280;38812;50.942;3.644;2023-04-19T01:01:32;102459.25;;;8.43;100.00
52949;BME280;38812;50.942;3.644;2023-04-19T01:03:59;102452.28;;;8.44;100.00
52949;BME280;38812;50.942;3.644;2023-04-19T01:06:25;102449.59;;;8.39;100.00
52949;BME280;38812;50.942;3.644;2023-04-19T01:08:52;102445.19;;;8.37;100.00
52949;BME280;38812;50.942;3.644;2023-04-19T01:11:18;102449.41;;;8.29;100.00
52949;BME280;38812;50.942;3.644;2023-04-19T01:13:43;102447.59;;;8.26;100.00
52949;BME280;38812;50.942;3.644;2023-04-19T01:16:09;102452.13;;;8.33;100.00
52949;BME280;38812;50.942;3.644;2023-04-19T01:18:34;102449.25;;;8.18;100.00
52949;BME280;38812;50.942;3.644;2023-04-19T01:21:02;102442.16;;;8.11;100.00
52949;BME280;38812;50.942;3.644;2023-04-19T01:23:28;102435.13;;;8.07;100.00
52949;BME280;38812;50.942;3.644;2023-04-19T01:25:54;102442.16;;;8.11;100.00
52949;BME280;38812;50.942;3.644;2023-04-19T01:28:20;102449.91;;;8.05;100.00
52949;BME280;38812;50.942;3.644;2023-04-19T01:30:46;102439.38;;;7.99;100.00
52949;BME280;38812;50.942;3.644;2023-04-19T01:33:11;102450.66;;;7.95;100.00
52949;BME280;38812;50.942;3.644;2023-04-19T01:35:36;102447.22;;;7.99;100.00
52949;BME280;38812;50.942;3.644;2023-04-19T01:38:02;102428.75;;;7.88;100.00
52949;BME280;38812;50.942;3.644;2023-04-19T01:40:27;102440.13;;;7.91;100.00
52949;BME280;38812;50.942;3.644;2023-04-19T01:42:53;102441.75;;;7.83;100.00
52949;BME280;38812;50.942;3.644;2023-04-19T01:45:19;102446.16;;;7.86;100.00
52949;BME280;38812;50.942;3.644;2023-04-19T01:47:44;102448.75;;;7.86;100.00
52949;BME280;38812;50.942;3.644;2023-04-19T01:50:10;102444.44;;;7.88;100.00
52949;BME280;38812;50.942;3.644;2023-04-19T01:52:35;102439.94;;;7.78;100.00
52949;BME280;38812;50.942;3.644;2023-04-19T01:55:00;102441.69;;;7.80;100.00
52949;BME280;38812;50.942;3.644;2023-04-19T01:57:26;102441.78;;;7.86;100.00
52949;BME280;38812;50.942;3.644;2023-04-19T01:59:54;102432.06;;;7.76;100.00
52949;BME280;38812;50.942;3.644;2023-04-19T02:02:20;102429.22;;;7.64;100.00
52949;BME280;38812;50.942;3.644;2023-04-19T02:04:45;102430.09;;;7.63;100.00
52949;BME280;38812;50.942;3.644;2023-04-19T02:07:10;102442.41;;;7.70;100.00
52949;BME280;38812;50.942;3.644;2023-04-19T02:09:37;102432.75;;;7.66;100.00
52949;BME280;38812;50.942;3.644;2023-04-19T02:12:03;102432.72;;;7.65;100.00
52949;BME280;38812;50.942;3.644;2023-04-19T02:14:29;102422.16;;;7.57;100.00
52949;BME280;38812;50.942;3.644;2023-04-19T02:16:55;102420.47;;;7.62;100.00
52949;BME280;38812;50.942;3.644;2023-04-19T02:19:20;102428.25;;;7.56;100.00
52949;BME280;38812;50.942;3.644;2023-04-19T02:21:45;102421.22;;;7.53;100.00
52949;BME280;38812;50.942;3.644;2023-04-19T02:24:11;102423.81;;;7.52;100.00
52949;BME280;38812;50.942;3.644;2023-04-19T02:26:36;102408.94;;;7.49;100.00
52949;BME280;38812;50.942;3.644;2023-04-19T02:29:03;102413.31;;;7.49;100.00
52949;BME280;38812;50.942;3.644;2023-04-19T02:31:28;102413.31;;;7.49;100.00
52949;BME280;38812;50.942;3.644;2023-04-19T02:33:53;102414.97;;;7.45;100.00
52949;BME280;38812;50.942;3.644;2023-04-19T02:36:19;102411.56;;;7.49;100.00
52949;BME280;38812;50.942;3.644;2023-04-19T02:38:44;102422.00;;;7.48;100.00
52949;BME280;38812;50.942;3.644;2023-04-19T02:41:09;102413.25;;;7.46;100.00
52949;BME280;38812;50.942;3.644;2023-04-19T02:43:35;102430.63;;;7.44;100.00
52949;BME280;38812;50.942;3.644;2023-04-19T02:46:00;102411.34;;;7.36;100.00
52949;BME280;38812;50.942;3.644;2023-04-19T02:48:26;102427.03;;;7.37;100.00
52949;BME280;38812;50.942;3.644;2023-04-19T02:50:51;102423.50;;;7.34;100.00
52949;BME280;38812;50.942;3.644;2023-04-19T02:53:17;102412.06;;;7.27;100.00
52949;BME280;38812;50.942;3.644;2023-04-19T02:55:42;102418.16;;;7.28;100.00
52949;BME280;38812;50.942;3.644;2023-04-19T02:58:07;102424.19;;;7.23;100.00
52949;BME280;38812;50.942;3.644;2023-04-19T03:00:33;102421.50;;;7.20;100.00
52949;BME280;38812;50.942;3.644;2023-04-19T03:02:58;102422.34;;;7.18;100.00
52949;BME280;38812;50.942;3.644;2023-04-19T03:05:24;102418.84;;;7.17;100.00
52949;BME280;38812;50.942;3.644;2023-04-19T03:07:50;102413.59;;;7.14;100.00
52949;BME280;38812;50.942;3.644;2023-04-19T03:10:15;102415.19;;;7.08;100.00
52949;BME280;38812;50.942;3.644;2023-04-19T03:12:41;102422.94;;;7.03;100.00
52949;BME280;38812;50.942;3.644;2023-04-19T03:15:07;102417.66;;;7.00;100.00
52949;BME280;38812;50.942;3.644;2023-04-19T03:17:32;102409.75;;;6.97;100.00
52949;BME280;38812;50.942;3.644;2023-04-19T03:19:58;102419.38;;;6.98;100.00
52949;BME280;38812;50.942;3.644;2023-04-19T03:22:23;102412.44;;;7.00;100.00
52949;BME280;38812;50.942;3.644;2023-04-19T03:24:48;102412.38;;;6.97;100.00
52949;BME280;38812;50.942;3.644;2023-04-19T03:27:14;102411.69;;;7.06;100.00
52949;BME280;38812;50.942;3.644;2023-04-19T03:29:39;102405.38;;;6.96;100.00
52949;BME280;38812;50.942;3.644;2023-04-19T03:32:05;102403.69;;;6.98;100.00
52949;BME280;38812;50.942;3.644;2023-04-19T03:34:31;102405.44;;;6.99;100.00
52949;BME280;38812;50.942;3.644;2023-04-19T03:36:56;102405.63;;;7.08;100.00
52949;BME280;38812;50.942;3.644;2023-04-19T03:39:22;102404.25;;;7.29;100.00
52949;BME280;38812;50.942;3.644;2023-04-19T03:41:47;102407.81;;;7.34;100.00
52949;BME280;38812;50.942;3.644;2023-04-19T03:44:13;102409.56;;;7.36;100.00
52949;BME280;38812;50.942;3.644;2023-04-19T03:46:38;102412.44;;;7.50;100.00
52949;BME280;38812;50.942;3.644;2023-04-19T03:49:03;102410.78;;;7.53;100.00
52949;BME280;38812;50.942;3.644;2023-04-19T03:51:29;102403.72;;;7.49;100.00
52949;BME280;38812;50.942;3.644;2023-04-19T03:53:55;102403.81;;;7.54;100.00
52949;BME280;38812;50.942;3.644;2023-04-19T03:56:20;102411.72;;;7.60;100.00
52949;BME280;38812;50.942;3.644;2023-04-19T03:58:46;102402.25;;;7.67;100.00
52949;BME280;38812;50.942;3.644;2023-04-19T04:01:18;102401.41;;;7.69;100.00
52949;BME280;38812;50.942;3.644;2023-04-19T04:03:43;102391.81;;;7.68;100.00
52949;BME280;38812;50.942;3.644;2023-04-19T04:06:09;102391.94;;;7.76;100.00
52949;BME280;38812;50.942;3.644;2023-04-19T04:08:34;102403.34;;;7.82;100.00
52949;BME280;38812;50.942;3.644;2023-04-19T04:11:00;102399.91;;;7.85;100.00
52949;BME280;38812;50.942;3.644;2023-04-19T04:13:25;102400.03;;;7.93;100.00
52949;BME280;38812;50.942;3.644;2023-04-19T04:15:51;102397.41;;;7.93;100.00
52949;BME280;38812;50.942;3.644;2023-04-19T04:18:16;102394.78;;;7.93;100.00
52949;BME280;38812;50.942;3.644;2023-04-19T04:20:42;102400.03;;;7.93;100.00
52949;BME280;38812;50.942;3.644;2023-04-19T04:23:08;102405.34;;;7.97;100.00
52949;BME280;38812;50.942;3.644;2023-04-19T04:25:35;102387.69;;;7.85;100.00
52949;BME280;38812;50.942;3.644;2023-04-19T04:28:04;102391.09;;;7.78;100.00
52949;BME280;38812;50.942;3.644;2023-04-19T04:30:31;102397.16;;;7.76;100.00
52949;BME280;38812;50.942;3.644;2023-04-19T04:32:58;102406.75;;;7.75;100.00
52949;BME280;38812;50.942;3.644;2023-04-19T04:35:23;102401.38;;;7.68;100.00
52949;BME280;38812;50.942;3.644;2023-04-19T04:37:48;102400.41;;;7.61;100.00
52949;BME280;38812;50.942;3.644;2023-04-19T04:40:14;102411.00;;;7.69;100.00
52949;BME280;38812;50.942;3.644;2023-04-19T04:42:40;102403.06;;;7.64;100.00
52949;BME280;38812;50.942;3.644;2023-04-19T04:45:07;102405.59;;;7.58;100.00
52949;BME280;38812;50.942;3.644;2023-04-19T04:47:35;102415.19;;;7.59;100.00
52949;BME280;38812;50.942;3.644;2023-04-19T04:50:01;102416.84;;;7.52;100.00
52949;BME280;38812;50.942;3.644;2023-04-19T04:52:27;102408.19;;;7.58;100.00
52949;BME280;38812;50.942;3.644;2023-04-19T04:54:53;102420.53;;;7.65;100.00
52949;BME280;38812;50.942;3.644;2023-04-19T04:57:18;102416.31;;;7.73;100.00
52949;BME280;38812;50.942;3.644;2023-04-19T04:59:44;102421.53;;;7.73;100.00
52949;BME280;38812;50.942;3.644;2023-04-19T05:02:15;102418.09;;;7.76;100.00
52949;BME280;38812;50.942;3.644;2023-04-19T05:04:41;102431.22;;;7.77;100.00
52949;BME280;38812;50.942;3.644;2023-04-19T05:07:06;102424.25;;;7.79;100.00
52949;BME280;38812;50.942;3.644;2023-04-19T05:09:31;102419.03;;;7.81;100.00
52949;BME280;38812;50.942;3.644;2023-04-19T05:11:57;102428.66;;;7.83;100.00
52949;BME280;38812;50.942;3.644;2023-04-19T05:14:22;102433.16;;;7.90;100.00
52949;BME280;38812;50.942;3.644;2023-04-19T05:16:47;102421.91;;;7.98;100.00
52949;BME280;38812;50.942;3.644;2023-04-19T05:19:13;102417.59;;;8.01;100.00
52949;BME280;38812;50.942;3.644;2023-04-19T05:21:38;102426.50;;;8.14;100.00
52949;BME280;38812;50.942;3.644;2023-04-19T05:24:04;102422.34;;;8.28;100.00
52949;BME280;38812;50.942;3.644;2023-04-19T05:26:29;102406.81;;;8.39;100.00
52949;BME280;38812;50.942;3.644;2023-04-19T05:28:55;102421.09;;;8.64;100.00
52949;BME280;38812;50.942;3.644;2023-04-19T05:31:20;102430.06;;;8.85;100.00
52949;BME280;38812;50.942;3.644;2023-04-19T05:33:46;102425.97;;;9.13;100.00
52949;BME280;38812;50.942;3.644;2023-04-19T05:36:11;102422.84;;;9.51;100.00
52949;BME280;38812;50.942;3.644;2023-04-19T05:38:37;102422.19;;;9.81;100.00
52949;BME280;38812;50.942;3.644;2023-04-19T05:41:04;102423.31;;;10.15;100.00
52949;BME280;38812;50.942;3.644;2023-04-19T05:43:30;102419.19;;;10.58;100.00
52949;BME280;38812;50.942;3.644;2023-04-19T05:45:56;102430.63;;;10.75;100.00
52949;BME280;38812;50.942;3.644;2023-04-19T05:48:21;102431.31;;;10.32;100.00
52949;BME280;38812;50.942;3.644;2023-04-19T05:50:46;102425.34;;;10.71;100.00
52949;BME280;38812;50.942;3.644;2023-04-19T05:53:12;102436.88;;;11.17;100.00
52949;BME280;38812;50.942;3.644;2023-04-19T05:55:37;102435.97;;;11.13;100.00
52949;BME280;38812;50.942;3.644;2023-04-19T05:58:02;102436.88;;;11.37;100.00
52949;BME280;38812;50.942;3.644;2023-04-19T06:00:28;102432.50;;;11.39;100.00
52949;BME280;38812;50.942;3.644;2023-04-19T06:02:53;102439.50;;;11.35;100.00
52949;BME280;38812;50.942;3.644;2023-04-19T06:05:19;102432.47;;;11.14;100.00
52949;BME280;38812;50.942;3.644;2023-04-19T06:07:44;102431.56;;;10.98;100.00
52949;BME280;38812;50.942;3.644;2023-04-19T06:10:10;102430.69;;;11.01;100.00
52949;BME280;38812;50.942;3.644;2023-04-19T06:12:35;102442.19;;;11.47;100.00
52949;BME280;38812;50.942;3.644;2023-04-19T06:15:00;102439.53;;;11.94;100.00
52949;BME280;38812;50.942;3.644;2023-04-19T06:17:26;102427.25;;;11.99;100.00
52949;BME280;38812;50.942;3.644;2023-04-19T06:19:52;102434.28;;;11.67;100.00
52949;BME280;38812;50.942;3.644;2023-04-19T06:22:18;102444.81;;;11.76;100.00
52949;BME280;38812;50.942;3.644;2023-04-19T06:24:44;102434.28;;;11.76;100.00
52949;BME280;38812;50.942;3.644;2023-04-19T06:27:14;102434.25;;;11.91;100.00
52949;BME280;38812;50.942;3.644;2023-04-19T06:29:39;102438.69;;;11.83;100.00
52949;BME280;38812;50.942;3.644;2023-04-19T06:32:05;102442.16;;;12.08;100.00
52949;BME280;38812;50.942;3.644;2023-04-19T06:34:30;102442.16;;;12.07;100.00
52949;BME280;38812;50.942;3.644;2023-04-19T06:36:56;102442.13;;;12.25;100.00
52949;BME280;38812;50.942;3.644;2023-04-19T06:39:21;102449.16;;;12.21;100.00
52949;BME280;38812;50.942;3.644;2023-04-19T06:41:46;102446.50;;;12.23;100.00
52949;BME280;38812;50.942;3.644;2023-04-19T06:44:12;102425.41;;;12.29;100.00
52949;BME280;38812;50.942;3.644;2023-04-19T06:46:38;102436.91;;;11.93;100.00
52949;BME280;38812;50.942;3.644;2023-04-19T06:49:03;102436.00;;;12.08;100.00
52949;BME280;38812;50.942;3.644;2023-04-19T06:51:29;102432.47;;;12.22;100.00
52949;BME280;38812;50.942;3.644;2023-04-19T06:53:54;102436.94;;;11.85;100.00
52949;BME280;38812;50.942;3.644;2023-04-19T06:59:06;102432.47;;;12.19;100.00
52949;BME280;38812;50.942;3.644;2023-04-19T07:01:32;102435.81;;;12.70;100.00
52949;BME280;38812;50.942;3.644;2023-04-19T07:03:57;102433.25;;;12.55;100.00
52949;BME280;38812;50.942;3.644;2023-04-19T07:06:22;102436.78;;;12.45;100.00
52949;BME280;38812;50.942;3.644;2023-04-19T07:08:48;102435.97;;;12.17;100.00
52949;BME280;38812;50.942;3.644;2023-04-19T07:11:13;102427.25;;;12.04;100.00
52949;BME280;38812;50.942;3.644;2023-04-19T07:13:39;102434.25;;;12.10;100.00
52949;BME280;38812;50.942;3.644;2023-04-19T07:16:04;102418.41;;;12.14;100.00
52949;BME280;38812;50.942;3.644;2023-04-19T07:18:31;102421.84;;;12.42;100.00
52949;BME280;38812;50.942;3.644;2023-04-19T07:20:56;102424.47;;;12.50;100.00
52949;BME280;38812;50.942;3.644;2023-04-19T07:23:22;102424.47;;;12.48;100.00
52949;BME280;38812;50.942;3.644;2023-04-19T07:25:47;102429.63;;;12.74;100.00
52949;BME280;38812;50.942;3.644;2023-04-19T07:28:13;102418.25;;;12.64;100.00
52949;BME280;38812;50.942;3.644;2023-04-19T07:30:40;102421.63;;;12.88;100.00
52949;BME280;38812;50.942;3.644;2023-04-19T07:33:05;102430.28;;;13.11;100.00
52949;BME280;38812;50.942;3.644;2023-04-19T07:35:33;102416.22;;;13.18;100.00
52949;BME280;38812;50.942;3.644;2023-04-19T07:37:58;102405.34;;;13.58;100.00
52949;BME280;38812;50.942;3.644;2023-04-19T07:40:24;102424.66;;;13.63;100.00
52949;BME280;38812;50.942;3.644;2023-04-19T07:42:49;102413.16;;;13.68;100.00
52949;BME280;38812;50.942;3.644;2023-04-19T07:45:15;102414.84;;;13.76;100.00
52949;BME280;38812;50.942;3.644;2023-04-19T07:47:40;102425.41;;;13.77;100.00
52949;BME280;38812;50.942;3.644;2023-04-19T07:50:06;102414.09;;;13.63;100.00
52949;BME280;38812;50.942;3.644;2023-04-19T07:52:32;102430.94;;;13.47;100.00
52949;BME280;38812;50.942;3.644;2023-04-19T07:54:57;102409.66;;;13.65;100.00
52949;BME280;38812;50.942;3.644;2023-04-19T07:57:23;102416.00;;;13.46;100.00
52949;BME280;38812;50.942;3.644;2023-04-19T07:59:48;102412.59;;;14.23;100.00
52949;BME280;38812;50.942;3.644;2023-04-19T08:02:13;102415.47;;;14.03;100.00
52949;BME280;38812;50.942;3.644;2023-04-19T08:04:40;102415.47;;;14.03;100.00
52949;BME280;38812;50.942;3.644;2023-04-19T08:07:05;102413.59;;;14.12;100.00
52949;BME280;38812;50.942;3.644;2023-04-19T08:09:33;102407.53;;;14.79;100.00
52949;BME280;38812;50.942;3.644;2023-04-19T08:11:58;102410.50;;;14.54;100.00
52949;BME280;38812;50.942;3.644;2023-04-19T08:14:25;102411.25;;;14.65;100.00
52949;BME280;38812;50.942;3.644;2023-04-19T08:16:50;102410.91;;;14.90;100.00
52949;BME280;38812;50.942;3.644;2023-04-19T08:19:16;102407.50;;;14.82;100.00
52949;BME280;38812;50.942;3.644;2023-04-19T08:21:41;102414.94;;;15.72;100.00
52949;BME280;38812;50.942;3.644;2023-04-19T08:24:07;102413.59;;;15.43;100.00
52949;BME280;38812;50.942;3.644;2023-04-19T08:26:32;102419.28;;;15.19;100.00
52949;BME280;38812;50.942;3.644;2023-04-19T08:28:57;102413.91;;;15.25;100.00
52949;BME280;38812;50.942;3.644;2023-04-19T08:31:23;102412.78;;;15.92;100.00
52949;BME280;38812;50.942;3.644;2023-04-19T08:33:48;102413.03;;;16.25;100.00
52949;BME280;38812;50.942;3.644;2023-04-19T08:36:13;102415.69;;;15.79;100.00
52949;BME280;38812;50.942;3.644;2023-04-19T08:38:40;102396.53;;;16.10;100.00
52949;BME280;38812;50.942;3.644;2023-04-19T08:41:05;102404.94;;;16.75;100.00
52949;BME280;38812;50.942;3.644;2023-04-19T08:43:34;102402.09;;;16.85;100.00
52949;BME280;38812;50.942;3.644;2023-04-19T08:46:01;102404.69;;;17.25;100.00
52949;BME280;38812;50.942;3.644;2023-04-19T08:48:29;102411.25;;;17.10;100.00
52949;BME280;38812;50.942;3.644;2023-04-19T08:50:56;102408.34;;;16.39;100.00
52949;BME280;38812;50.942;3.644;2023-04-19T08:53:24;102419.78;;;16.86;100.00
52949;BME280;38812;50.942;3.644;2023-04-19T08:55:52;102411.53;;;15.08;100.00
52949;BME280;38812;50.942;3.644;2023-04-19T08:58:23;102417.16;;;15.42;100.00
52949;BME280;38812;50.942;3.644;2023-04-19T09:00:50;102408.94;;;16.08;100.00
52949;BME280;38812;50.942;3.644;2023-04-19T09:03:15;102396.16;;;16.29;100.00
52949;BME280;38812;50.942;3.644;2023-04-19T09:05:41;102407.03;;;16.17;100.00
52949;BME280;38812;50.942;3.644;2023-04-19T09:08:26;102410.28;;;15.83;100.00
52949;BME280;38812;50.942;3.644;2023-04-19T09:10:59;102404.50;;;15.04;100.00
52949;BME280;38812;50.942;3.644;2023-04-19T09:13:28;102407.66;;;15.83;100.00
52949;BME280;38812;50.942;3.644;2023-04-19T09:15:54;102397.88;;;15.34;100.00
52949;BME280;38812;50.942;3.644;2023-04-19T09:18:23;102408.53;;;15.82;100.00
52949;BME280;38812;50.942;3.644;2023-04-19T09:20:52;102396.50;;;15.64;100.00
52949;BME280;38812;50.942;3.644;2023-04-19T09:23:26;102397.66;;;15.47;100.00
52949;BME280;38812;50.942;3.644;2023-04-19T09:28:21;102389.34;;;16.59;100.00
52949;BME280;38812;50.942;3.644;2023-04-19T09:30:47;102383.00;;;17.06;100.00
52949;BME280;38812;50.942;3.644;2023-04-19T09:33:12;102382.44;;;16.52;100.00
52949;BME280;38812;50.942;3.644;2023-04-19T09:35:43;102386.13;;;16.01;100.00
52949;BME280;38812;50.942;3.644;2023-04-19T09:38:09;102392.94;;;16.56;100.00
52949;BME280;38812;50.942;3.644;2023-04-19T09:40:36;102372.72;;;17.29;100.00
52949;BME280;38812;50.942;3.644;2023-04-19T09:43:01;102376.41;;;16.02;100.00
52949;BME280;38812;50.942;3.644;2023-04-19T09:45:44;102387.38;;;15.28;100.00
52949;BME280;38812;50.942;3.644;2023-04-19T09:48:13;102385.28;;;16.42;100.00
52949;BME280;38812;50.942;3.644;2023-04-19T09:50:59;102378.59;;;17.76;100.00
52949;BME280;38812;50.942;3.644;2023-04-19T09:53:25;102365.94;;;17.86;100.00
52949;BME280;38812;50.942;3.644;2023-04-19T09:55:51;102363.47;;;18.10;100.00
52949;BME280;38812;50.942;3.644;2023-04-19T09:58:19;102366.69;;;18.22;100.00
52949;BME280;38812;50.942;3.644;2023-04-19T10:00:45;102360.75;;;17.81;100.00
52949;BME280;38812;50.942;3.644;2023-04-19T10:03:15;102369.97;;;16.14;100.00
52949;BME280;38812;50.942;3.644;2023-04-19T10:05:42;102369.84;;;15.73;100.00
52949;BME280;38812;50.942;3.644;2023-04-19T10:08:09;102369.47;;;15.42;100.00
52949;BME280;38812;50.942;3.644;2023-04-19T10:10:35;102352.69;;;16.77;100.00
52949;BME280;38812;50.942;3.644;2023-04-19T10:13:06;102360.16;;;17.34;97.37
52949;BME280;38812;50.942;3.644;2023-04-19T10:15:35;102352.59;;;17.87;95.99
52949;BME280;38812;50.942;3.644;2023-04-19T10:18:02;102354.75;;;18.05;100.00
52949;BME280;38812;50.942;3.644;2023-04-19T10:20:56;102362.84;;;17.70;95.50
52949;BME280;38812;50.942;3.644;2023-04-19T10:23:23;102348.44;;;16.70;100.00
52949;BME280;38812;50.942;3.644;2023-04-19T10:25:57;102360.19;;;15.71;100.00
52949;BME280;38812;50.942;3.644;2023-04-19T10:28:23;102353.63;;;15.39;100.00
52949;BME280;38812;50.942;3.644;2023-04-19T10:30:53;102345.91;;;15.27;100.00
52949;BME280;38812;50.942;3.644;2023-04-19T10:33:27;102341.72;;;16.11;100.00
52949;BME280;38812;50.942;3.644;2023-04-19T10:35:57;102342.16;;;17.11;100.00
52949;BME280;38812;50.942;3.644;2023-04-19T10:38:41;102334.38;;;17.04;100.00
52949;BME280;38812;50.942;3.644;2023-04-19T10:41:14;102340.41;;;17.10;100.00
52949;BME280;38812;50.942;3.644;2023-04-19T10:48:59;102329.91;;;15.84;100.00
52949;BME280;38812;50.942;3.644;2023-04-19T10:51:34;102332.00;;;16.92;100.00
52949;BME280;38812;50.942;3.644;2023-04-19T10:54:02;102319.16;;;16.73;100.00
52949;BME280;38812;50.942;3.644;2023-04-19T11:01:40;102318.38;;;18.37;81.29
52949;BME280;38812;50.942;3.644;2023-04-19T11:09:24;102313.69;;;16.81;100.00
52949;BME280;38812;50.942;3.644;2023-04-19T11:11:51;102309.16;;;16.86;90.80
52949;BME280;38812;50.942;3.644;2023-04-19T11:14:19;102298.13;;;17.37;95.94
52949;BME280;38812;50.942;3.644;2023-04-19T11:16:45;102304.38;;;17.00;86.55
52949;BME280;38812;50.942;3.644;2023-04-19T11:19:17;102304.06;;;16.77;88.91
52949;BME280;38812;50.942;3.644;2023-04-19T11:21:47;102297.03;;;17.78;82.30
52949;BME280;38812;50.942;3.644;2023-04-19T11:24:13;102286.63;;;17.70;91.59
52949;BME280;38812;50.942;3.644;2023-04-19T11:26:44;102280.88;;;18.17;82.29
52949;BME280;38812;50.942;3.644;2023-04-19T11:29:11;102299.22;;;17.30;86.44
52949;BME280;38812;50.942;3.644;2023-04-19T11:31:36;102281.13;;;17.10;98.97
52949;BME280;38812;50.942;3.644;2023-04-19T11:34:02;102279.53;;;17.71;90.13
52949;BME280;38812;50.942;3.644;2023-04-19T11:36:28;102280.25;;;18.36;82.81
52949;BME280;38812;50.942;3.644;2023-04-19T11:38:53;102286.63;;;19.39;79.32
52949;BME280;38812;50.942;3.644;2023-04-19T11:41:19;102271.00;;;18.48;76.49
52949;BME280;38812;50.942;3.644;2023-04-19T11:43:44;102274.72;;;17.51;83.16
52949;BME280;38812;50.942;3.644;2023-04-19T11:46:11;102276.91;;;17.01;84.05
52949;BME280;38812;50.942;3.644;2023-04-19T11:48:53;102285.31;;;16.85;83.49
52949;BME280;38812;50.942;3.644;2023-04-19T11:51:19;102270.13;;;17.56;81.07
52949;BME280;38812;50.942;3.644;2023-04-19T11:53:44;102273.31;;;18.01;78.19
52949;BME280;38812;50.942;3.644;2023-04-19T11:56:10;102271.00;;;18.77;75.54
52949;BME280;38812;50.942;3.644;2023-04-19T11:58:37;102274.06;;;18.92;75.37
52949;BME280;38812;50.942;3.644;2023-04-19T12:01:08;102269.53;;;17.46;79.27
52949;BME280;38812;50.942;3.644;2023-04-19T12:03:40;102263.94;;;16.51;84.85
52949;BME280;38812;50.942;3.644;2023-04-19T12:06:14;102265.22;;;16.34;88.66
52949;BME280;38812;50.942;3.644;2023-04-19T12:08:46;102256.47;;;17.05;90.08
52949;BME280;38812;50.942;3.644;2023-04-19T12:11:13;102259.06;;;17.74;90.18
52949;BME280;38812;50.942;3.644;2023-04-19T12:13:38;102250.13;;;18.06;79.12
52949;BME280;38812;50.942;3.644;2023-04-19T12:16:09;102260.19;;;18.25;80.64
52949;BME280;38812;50.942;3.644;2023-04-19T12:18:42;102248.88;;;17.89;75.38
52949;BME280;38812;50.942;3.644;2023-04-19T12:21:09;102261.59;;;17.11;72.82
52949;BME280;38812;50.942;3.644;2023-04-19T12:23:35;102252.00;;;17.07;73.66
52949;BME280;38812;50.942;3.644;2023-04-19T12:26:03;102245.81;;;18.02;82.02
52949;BME280;38812;50.942;3.644;2023-04-19T12:28:29;102248.59;;;18.27;70.96
52949;BME280;38812;50.942;3.644;2023-04-19T12:30:55;102245.44;;;17.85;70.79
52949;BME280;38812;50.942;3.644;2023-04-19T12:33:20;102250.63;;;16.54;73.51
52949;BME280;38812;50.942;3.644;2023-04-19T12:35:46;102256.75;;;16.19;75.90
52949;BME280;38812;50.942;3.644;2023-04-19T12:38:11;102244.25;;;16.98;72.50
52949;BME280;38812;50.942;3.644;2023-04-19T12:40:36;102243.25;;;17.99;70.31
52949;BME280;38812;50.942;3.644;2023-04-19T12:43:02;102226.53;;;17.63;68.94
52949;BME280;38812;50.942;3.644;2023-04-19T12:45:27;102237.38;;;17.25;70.94
52949;BME280;38812;50.942;3.644;2023-04-19T12:47:52;102229.38;;;16.55;73.28
52949;BME280;38812;50.942;3.644;2023-04-19T12:50:18;102225.72;;;16.59;70.98
52949;BME280;38812;50.942;3.644;2023-04-19T12:52:44;102234.41;;;16.67;74.32
52949;BME280;38812;50.942;3.644;2023-04-19T12:55:10;102220.56;;;17.24;70.62
52949;BME280;38812;50.942;3.644;2023-04-19T12:57:35;102209.97;;;17.23;68.02
52949;BME280;38812;50.942;3.644;2023-04-19T13:00:01;102207.66;;;18.03;68.08
52949;BME280;38812;50.942;3.644;2023-04-19T13:02:26;102190.44;;;17.87;69.21